Time;durP1;ratioP1;P1;durP2;ratioP2;P2;SDS_P1;SDS_P2;PMS_P1;PMS_P2;Temp;Humidity;BMP_temperature;BMP_pressure;BME280_temperature;BME280_humidity;BME280_pressure;Samples;Min_cycle;Max_cycle;Signal;HPM_P1;HPM_P2
2024/02/12 00:01:32;;;;;;;59.20;32.50;;;;;;;5.91;85.83;95268.46;104717;1260;97870;-76
2024/02/12 00:04:39;;;;;;;53.50;29.70;;;;;;;5.92;85.78;95266.86;104677;1263;98414;-77
2024/02/12 00:07:26;;;;;;;56.70;30.40;;;;;;;5.94;85.94;95271.77;104573;1269;102682;-77
2024/02/12 00:10:23;;;;;;;58.00;30.50;;;;;;;5.97;86.00;95280.27;104657;1271;100421;-79
2024/02/12 00:13:33;;;;;;;50.80;29.10;;;;;;;6.01;86.10;95279.02;104574;1270;98036;-76
2024/02/12 00:16:40;;;;;;;53.90;29.00;;;;;;;6.02;86.18;95284.24;104644;1264;97919;-77
2024/02/12 00:19:48;;;;;;;54.20;29.10;;;;;;;6.01;86.22;95283.42;104707;1257;98432;-77
2024/02/12 00:22:55;;;;;;;49.20;29.70;;;;;;;6.02;86.27;95288.15;104662;1258;103492;-77
2024/02/12 00:25:33;;;;;;;58.10;30.50;;;;;;;6.02;86.32;95290.08;104640;1262;100416;-78
2024/02/12 00:28:40;;;;;;;44.00;24.90;;;;;;;6.03;86.35;95287.48;104628;1257;99253;-76
2024/02/12 00:31:47;;;;;;;48.80;28.50;;;;;;;6.03;86.51;95297.23;104623;1261;97945;-77
2024/02/12 00:34:54;;;;;;;48.30;27.00;;;;;;;6.02;86.62;95300.14;104556;1262;98469;-78
2024/02/12 00:38:00;;;;;;;48.20;27.70;;;;;;;6.01;86.72;95302.91;104623;1256;103509;-77
2024/02/12 00:40:50;;;;;;;45.30;27.20;;;;;;;6.04;86.71;95303.88;104647;1256;100685;-77
2024/02/12 00:43:45;;;;;;;37.00;22.40;;;;;;;6.07;86.77;95300.73;104648;1261;99777;-76
2024/02/12 00:46:37;;;;;;;43.60;26.90;;;;;;;6.09;86.75;95303.83;104607;1256;97926;-81
2024/02/12 00:49:32;;;;;;;47.10;27.30;;;;;;;6.11;86.89;95303.30;104618;1256;98717;-78
2024/02/12 00:52:39;;;;;;;45.30;26.20;;;;;;;6.11;86.84;95307.54;104560;1263;102268;-83
2024/02/12 00:55:36;;;;;;;37.70;22.70;;;;;;;6.13;86.90;95305.75;104593;1264;100345;-76
2024/02/12 00:58:25;;;;;;;37.40;21.90;;;;;;;6.15;86.98;95304.23;104708;1258;99950;-76
2024/02/12 01:01:33;;;;;;;35.40;20.50;;;;;;;6.13;87.05;95305.88;105112;1256;99064;-76
2024/02/12 01:04:34;;;;;;;32.40;19.10;;;;;;;6.14;87.07;95304.38;104634;1261;98354;-76
2024/02/12 01:07:37;;;;;;;24.10;14.80;;;;;;;6.16;87.19;95303.40;104679;1262;102618;-77
2024/02/12 01:10:45;;;;;;;20.50;13.00;;;;;;;6.19;87.24;95303.50;104625;1256;101751;-76
2024/02/12 01:13:52;;;;;;;32.90;15.40;;;;;;;6.24;87.39;95303.04;104604;1261;99384;-76
2024/02/12 01:16:44;;;;;;;21.60;11.40;;;;;;;6.27;87.35;95301.45;104597;1261;99284;-76
2024/02/12 01:19:41;;;;;;;11.90;6.40;;;;;;;6.28;87.32;95302.74;104584;1262;97909;-77
2024/02/12 01:22:48;;;;;;;6.00;3.30;;;;;;;6.33;87.29;95303.48;104580;1261;103643;-77
2024/02/12 01:25:44;;;;;;;2.00;1.60;;;;;;;6.39;87.07;95303.30;104656;1261;101269;-77
2024/02/12 01:28:36;;;;;;;2.00;1.30;;;;;;;6.50;86.64;95306.84;104666;1260;99619;-78
2024/02/12 01:31:26;;;;;;;1.70;0.60;;;;;;;6.60;86.30;95307.11;104834;1260;97916;-83
2024/02/12 01:34:16;;;;;;;0.50;0.50;;;;;;;6.67;86.04;95308.39;104675;1261;98384;-80
2024/02/12 01:37:01;;;;;;;0.40;0.40;;;;;;;6.74;85.73;95309.23;104665;1259;102677;-79
2024/02/12 01:40:08;;;;;;;1.30;0.40;;;;;;;6.81;85.55;95306.36;104626;1271;101469;-80
2024/02/12 01:43:15;;;;;;;0.40;0.40;;;;;;;6.88;85.26;95306.16;104520;1262;99053;-79
2024/02/12 01:46:05;;;;;;;0.60;0.50;;;;;;;6.95;84.95;95309.13;104565;1262;97991;-79
2024/02/12 01:49:13;;;;;;;0.70;0.60;;;;;;;7.01;84.75;95313.05;104555;1261;99368;-80
2024/02/12 01:52:23;;;;;;;0.40;0.40;;;;;;;7.04;84.48;95311.35;104713;1262;103799;-79
2024/02/12 01:55:29;;;;;;;1.10;0.80;;;;;;;7.08;84.31;95309.83;104636;1260;100315;-77
2024/02/12 01:58:16;;;;;;;1.20;0.70;;;;;;;7.13;84.25;95314.40;104445;1256;99454;-78
2024/02/12 02:01:25;;;;;;;0.80;0.60;;;;;;;7.16;84.34;95320.36;104655;1262;99215;-77
2024/02/12 02:04:26;;;;;;;0.60;0.60;;;;;;;7.17;84.25;95327.79;104643;1260;99266;-77
2024/02/12 02:07:36;;;;;;;1.20;0.70;;;;;;;7.17;84.28;95327.58;104640;1257;102251;-76
2024/02/12 02:10:48;;;;;;;4.60;2.70;;;;;;;7.16;84.20;95328.46;104648;1258;101228;-84
2024/02/12 02:13:58;;;;;;;2.50;1.10;;;;;;;7.15;84.08;95332.99;104655;1261;98746;-77
2024/02/12 02:16:56;;;;;;;5.80;1.50;;;;;;;7.14;84.03;95337.66;104513;1267;98844;-76
2024/02/12 02:19:55;;;;;;;6.70;2.20;;;;;;;7.17;84.00;95342.86;104629;1270;98380;-77
2024/02/12 02:23:03;;;;;;;6.90;1.70;;;;;;;7.18;84.09;95347.25;104637;1261;102809;-76
2024/02/12 02:26:10;;;;;;;1.90;1.20;;;;;;;7.16;83.88;95349.18;104677;1260;101062;-77
2024/02/12 02:29:15;;;;;;;1.80;0.90;;;;;;;7.13;83.89;95353.36;104713;1260;99042;-77
2024/02/12 02:32:22;;;;;;;1.10;0.80;;;;;;;7.13;83.89;95355.94;104653;1261;97976;-84
2024/02/12 02:35:30;;;;;;;3.00;0.90;;;;;;;7.13;83.97;95356.10;104577;1261;98402;-84
2024/02/12 02:38:19;;;;;;;3.20;1.20;;;;;;;7.13;84.04;95356.59;104408;1267;103588;-84
2024/02/12 02:41:26;;;;;;;2.30;1.00;;;;;;;7.11;84.01;95359.23;104467;1263;101147;-84
2024/02/12 02:44:37;;;;;;;2.70;1.10;;;;;;;7.09;84.11;95358.73;104184;1270;99083;-84
2024/02/12 02:47:44;;;;;;;2.10;1.30;;;;;;;7.05;84.13;95357.94;104437;1265;98220;-80
2024/02/12 02:50:53;;;;;;;4.10;1.50;;;;;;;7.00;84.09;95360.85;104367;1264;100905;-76
2024/02/12 02:54:00;;;;;;;1.70;1.00;;;;;;;6.97;83.92;95359.02;104450;1271;102599;-77
2024/02/12 02:56:57;;;;;;;1.40;1.10;;;;;;;6.96;83.79;95356.73;104451;1274;103684;-77
2024/02/12 03:00:03;;;;;;;0.90;0.80;;;;;;;6.95;83.68;95354.52;104255;1267;99270;-77
2024/02/12 03:03:10;;;;;;;1.00;0.80;;;;;;;6.96;83.65;95359.25;104431;1263;98068;-82
2024/02/12 03:06:17;;;;;;;0.90;0.80;;;;;;;6.97;83.26;95359.81;104556;1282;99348;-83
2024/02/12 03:09:17;;;;;;;1.40;0.80;;;;;;;6.98;83.11;95366.44;104486;1263;102419;-83
2024/02/12 03:12:26;;;;;;;1.10;0.90;;;;;;;6.98;83.11;95371.48;104385;1265;101656;-82
2024/02/12 03:15:33;;;;;;;2.60;1.30;;;;;;;6.94;83.30;95374.73;104494;1262;98723;-83
2024/02/12 03:18:40;;;;;;;2.10;1.30;;;;;;;6.92;83.39;95381.81;104658;1262;97962;-84
2024/02/12 03:21:15;;;;;;;5.70;5.20;;;;;;;6.90;83.30;95377.52;104667;1261;98530;-83
2024/02/12 03:23:47;;;;;;;1.80;1.60;;;;;;;6.88;83.31;95379.60;104658;1264;103535;-84
2024/02/12 03:26:56;;;;;;;1.80;1.70;;;;;;;6.89;83.39;95385.29;104733;1261;101334;-76
2024/02/12 03:30:05;;;;;;;1.30;1.20;;;;;;;6.86;83.06;95386.17;104737;1262;99243;-84
2024/02/12 03:33:02;;;;;;;1.30;0.90;;;;;;;6.88;82.98;95389.25;104721;1262;97982;-77
2024/02/12 03:36:09;;;;;;;1.20;0.70;;;;;;;6.90;82.93;95393.40;104666;1261;99272;-84
2024/02/12 03:39:16;;;;;;;0.90;0.80;;;;;;;6.90;82.70;95393.56;104638;1260;103895;-85
2024/02/12 03:42:26;;;;;;;0.70;0.70;;;;;;;6.90;82.27;95394.21;104777;1256;101489;-84
2024/02/12 03:45:34;;;;;;;0.70;0.70;;;;;;;6.90;81.97;95393.84;104652;1262;98967;-81
2024/02/12 04:01:46;;;;;;;1.30;1.20;;;;;;;6.94;81.48;95405.88;104667;1261;99292;-83
2024/02/12 04:04:53;;;;;;;1.20;1.10;;;;;;;6.94;81.41;95405.13;104653;1260;98003;-77
2024/02/12 04:07:43;;;;;;;13.10;9.00;;;;;;;6.93;81.41;95403.17;104731;1260;98332;-77
2024/02/12 04:10:34;;;;;;;11.70;10.40;;;;;;;6.92;81.48;95402.73;104651;1262;103635;-78
2024/02/12 04:13:41;;;;;;;3.40;2.70;;;;;;;6.91;81.47;95405.27;104721;1256;101318;-80
2024/02/12 04:16:51;;;;;;;5.30;2.20;;;;;;;6.90;81.59;95405.57;104625;1260;98644;-84
2024/02/12 04:20:01;;;;;;;2.80;1.20;;;;;;;6.88;81.84;95407.22;104692;1260;99323;-83
2024/02/12 04:22:48;;;;;;;1.00;1.00;;;;;;;6.84;81.83;95407.67;104580;1272;98450;-83
2024/02/12 04:25:56;;;;;;;1.10;1.00;;;;;;;6.80;81.81;95410.38;104708;1257;102617;-84
2024/02/12 04:28:53;;;;;;;2.50;1.40;;;;;;;6.78;81.92;95418.00;104704;1256;101513;-78
2024/02/12 04:31:58;;;;;;;2.80;2.00;;;;;;;6.75;81.94;95416.92;104656;1261;100148;-78
2024/02/12 04:35:05;;;;;;;4.70;2.20;;;;;;;6.73;82.00;95417.79;104549;1258;97854;-77
2024/02/12 04:38:11;;;;;;;3.70;1.90;;;;;;;6.70;82.07;95415.20;104764;1257;98355;-77
2024/02/12 04:41:19;;;;;;;3.80;2.50;;;;;;;6.67;82.14;95417.65;104740;1265;103529;-76
2024/02/12 04:44:26;;;;;;;2.50;1.70;;;;;;;6.65;82.18;95419.38;104612;1279;101602;-79
2024/02/12 04:47:33;;;;;;;1.80;1.20;;;;;;;6.63;82.12;95424.87;104791;1256;99981;-82
2024/02/12 04:50:07;;;;;;;10.80;3.50;;;;;;;6.60;82.11;95427.36;104585;1264;97903;-84
2024/02/12 04:53:17;;;;;;;5.40;2.70;;;;;;;6.57;82.22;95430.67;104597;1261;98392;-86
2024/02/12 04:56:17;;;;;;;2.10;1.70;;;;;;;6.55;82.30;95426.01;104257;1268;104838;-84
2024/02/12 04:59:30;;;;;;;3.30;2.00;;;;;;;6.52;82.37;95424.83;104249;1277;101053;-82
2024/02/12 05:02:26;;;;;;;2.70;2.00;;;;;;;6.50;82.36;95422.23;104249;1264;99023;-77
2024/02/12 05:05:33;;;;;;;3.30;1.90;;;;;;;6.50;82.45;95421.27;104333;1267;99358;-77
2024/02/12 05:08:40;;;;;;;3.40;2.50;;;;;;;6.53;82.35;95425.91;104467;1265;98444;-76
2024/02/12 05:11:46;;;;;;;4.80;2.90;;;;;;;6.53;82.23;95425.64;104331;1266;111939;-77
2024/02/12 05:14:53;;;;;;;4.80;3.10;;;;;;;6.50;82.26;95428.33;104460;1264;100575;-78
2024/02/12 05:18:14;;;;;;;6.70;3.80;;;;;;;6.49;82.22;95429.01;104358;1260;100129;-77
2024/02/12 05:24:27;;;;;;;14.30;4.80;;;;;;;6.41;82.32;95433.32;104408;1265;103043;-82
2024/02/12 05:27:27;;;;;;;4.90;3.10;;;;;;;6.40;82.43;95436.14;104400;1259;101464;-83
2024/02/12 05:30:34;;;;;;;6.00;2.80;;;;;;;6.39;82.38;95438.76;104511;1259;100051;-78
2024/02/12 05:33:34;;;;;;;5.70;3.30;;;;;;;6.40;82.46;95444.33;104442;1270;97944;-83
2024/02/12 05:36:42;;;;;;;8.60;4.40;;;;;;;6.38;82.42;95452.46;104666;1261;98334;-83
2024/02/12 05:39:48;;;;;;;9.10;4.40;;;;;;;6.37;82.33;95456.92;104666;1263;103644;-83
2024/02/12 05:42:55;;;;;;;8.60;4.80;;;;;;;6.35;82.38;95466.23;104712;1256;100339;-77
2024/02/12 05:46:02;;;;;;;9.70;4.80;;;;;;;6.33;82.39;95468.49;104595;1260;98436;-78
2024/02/12 05:48:52;;;;;;;7.80;4.50;;;;;;;6.32;82.34;95470.57;104684;1260;97967;-76
2024/02/12 05:51:59;;;;;;;7.10;3.70;;;;;;;6.31;82.34;95475.36;104593;1280;98364;-76
2024/02/12 05:54:51;;;;;;;6.60;3.70;;;;;;;6.30;82.43;95481.32;104563;1267;103802;-76
2024/02/12 05:57:23;;;;;;;5.90;3.90;;;;;;;6.28;82.48;95487.63;104627;1262;100400;-77
2024/02/12 06:00:30;;;;;;;7.10;3.90;;;;;;;6.27;82.62;95489.58;104684;1260;98972;-77
2024/02/12 06:03:20;;;;;;;6.90;4.80;;;;;;;6.24;82.71;95493.13;104606;1258;99161;-76
2024/02/12 06:06:19;;;;;;;11.30;5.80;;;;;;;6.18;82.75;95498.46;104621;1258;98821;-76
2024/02/12 06:09:17;;;;;;;13.10;7.70;;;;;;;6.13;82.75;95503.34;104634;1262;103215;-77
2024/02/12 06:12:22;;;;;;;9.60;5.40;;;;;;;6.13;82.84;95505.82;104598;1261;100568;-77
2024/02/12 06:15:22;;;;;;;11.20;6.10;;;;;;;6.14;82.82;95506.48;104683;1260;100393;-77
2024/02/12 06:18:29;;;;;;;10.40;6.20;;;;;;;6.16;82.98;95513.59;104262;1266;98041;-83
2024/02/12 06:21:37;;;;;;;8.30;4.90;;;;;;;6.14;82.99;95517.72;104392;1265;98396;-84
2024/02/12 06:24:09;;;;;;;5.50;4.00;;;;;;;6.10;82.99;95517.73;104319;1265;103721;-79
2024/02/12 06:26:53;;;;;;;5.70;3.90;;;;;;;6.11;83.05;95519.79;104379;1265;100172;-78
2024/02/12 06:29:38;;;;;;;5.60;4.30;;;;;;;6.12;83.09;95519.44;104356;1265;99859;-78
2024/02/12 06:32:20;;;;;;;8.00;4.40;;;;;;;6.12;83.13;95519.65;104333;1276;98094;-78
2024/02/12 06:35:07;;;;;;;;;;;;;;;6.12;83.29;95520.26;104391;1265;98253;-76
2024/02/12 06:37:51;;;;;;;8.30;5.30;;;;;;;6.11;83.31;95523.05;104379;1261;102233;-77
2024/02/12 06:40:52;;;;;;;8.20;5.40;;;;;;;6.11;83.43;95526.59;104400;1262;101339;-78
2024/02/12 06:43:59;;;;;;;12.40;5.40;;;;;;;6.10;83.37;95527.27;104317;1267;99981;-78
2024/02/12 06:46:47;;;;;;;13.00;7.90;;;;;;;6.07;83.39;95533.89;104386;1267;97928;-78
2024/02/12 06:49:55;;;;;;;12.10;6.70;;;;;;;6.07;83.41;95535.09;104499;1268;98550;-78
2024/02/12 06:53:03;;;;;;;9.60;6.80;;;;;;;6.08;83.35;95537.21;104305;1265;103591;-79
2024/02/12 06:56:03;;;;;;;10.30;7.70;;;;;;;6.12;83.37;95541.83;104925;1262;100378;-78
2024/02/12 06:59:10;;;;;;;13.00;9.30;;;;;;;6.14;83.33;95544.89;104686;1257;100108;-77
2024/02/12 07:01:56;;;;;;;19.50;12.80;;;;;;;6.15;83.22;95548.34;104592;1264;98862;-76
2024/02/12 07:05:04;;;;;;;19.50;14.40;;;;;;;6.18;83.15;95549.67;104678;1260;99347;-77
2024/02/12 07:08:03;;;;;;;24.80;17.90;;;;;;;6.21;83.10;95556.35;104640;1261;103641;-77
2024/02/12 07:11:10;;;;;;;19.20;14.20;;;;;;;6.24;83.06;95562.05;104650;1261;101367;-77
2024/02/12 07:14:17;;;;;;;19.70;12.30;;;;;;;6.26;82.98;95560.71;104379;1262;98946;-76
2024/02/12 07:17:19;;;;;;;13.50;9.70;;;;;;;6.28;82.80;95554.70;104662;1262;97941;-78
2024/02/12 07:20:26;;;;;;;11.30;8.10;;;;;;;6.30;82.78;95550.89;104716;1256;97890;-84
2024/02/12 07:23:23;;;;;;;10.30;7.00;;;;;;;6.34;82.66;95553.90;104614;1262;102674;-82
2024/02/12 07:26:32;;;;;;;8.90;5.90;;;;;;;6.39;82.70;95553.39;104637;1261;100352;-81
2024/02/12 07:29:22;;;;;;;7.70;5.40;;;;;;;6.43;82.59;95556.59;104580;1261;99573;-82
2024/02/12 07:32:29;;;;;;;6.80;4.90;;;;;;;6.46;82.48;95554.32;104653;1262;97902;-79
2024/02/12 07:35:34;;;;;;;11.40;7.00;;;;;;;6.51;82.50;95555.61;104668;1262;98351;-79
2024/02/12 07:38:42;;;;;;;12.00;7.70;;;;;;;6.54;82.37;95553.64;104686;1278;103758;-78
2024/02/12 07:41:49;;;;;;;14.50;8.40;;;;;;;6.60;82.45;95559.10;104699;1262;101354;-77
2024/02/12 07:44:55;;;;;;;12.60;7.50;;;;;;;6.64;82.40;95560.33;104685;1277;99051;-76
2024/02/12 07:47:48;;;;;;;14.00;8.30;;;;;;;6.68;82.10;95562.95;104615;1262;99204;-78
2024/02/12 07:50:54;;;;;;;10.10;7.00;;;;;;;6.73;82.11;95567.58;104697;1262;97938;-76
2024/02/12 07:54:02;;;;;;;11.10;7.40;;;;;;;6.77;82.08;95570.34;104661;1271;103559;-77
2024/02/12 07:57:12;;;;;;;9.60;5.60;;;;;;;6.82;82.03;95570.30;104634;1268;100374;-82
2024/02/12 08:00:19;;;;;;;7.50;5.00;;;;;;;6.85;81.80;95569.52;104623;1267;99945;-82
2024/02/12 08:03:26;;;;;;;8.60;5.30;;;;;;;6.87;81.81;95570.00;104622;1258;97928;-82
2024/02/12 08:06:26;;;;;;;8.70;5.50;;;;;;;6.91;81.81;95570.19;104668;1260;98441;-82
2024/02/12 08:09:33;;;;;;;9.60;6.00;;;;;;;6.96;81.71;95574.33;104655;1257;103357;-83
2024/02/12 08:12:40;;;;;;;10.10;5.00;;;;;;;7.01;81.64;95579.22;104624;1262;101131;-84
2024/02/12 08:15:37;;;;;;;8.50;4.20;;;;;;;7.08;81.67;95581.33;104633;1262;100111;-80
2024/02/12 08:18:22;;;;;;;7.30;4.90;;;;;;;7.15;81.76;95582.77;104708;1262;98729;-81
2024/02/12 08:20:51;;;;;;;5.50;3.60;;;;;;;7.21;81.41;95583.66;104663;1261;98336;-83
2024/02/12 08:23:53;;;;;;;11.40;5.80;;;;;;;7.26;81.26;95589.02;104711;1262;102762;-82
2024/02/12 08:26:59;;;;;;;10.60;5.60;;;;;;;7.32;81.24;95588.78;104673;1262;100356;-82
2024/02/12 08:29:53;;;;;;;9.20;4.90;;;;;;;7.40;81.37;95585.20;104657;1256;100056;-84
2024/02/12 08:32:59;;;;;;;6.10;4.20;;;;;;;7.48;80.99;95583.27;104677;1262;97913;-80
2024/02/12 08:35:46;;;;;;;9.90;4.50;;;;;;;7.56;80.93;95584.31;104629;1264;99566;-79
2024/02/12 08:38:39;;;;;;;8.20;5.60;;;;;;;7.64;81.01;95586.84;104679;1260;103571;-83
2024/02/12 08:41:29;;;;;;;5.30;3.50;;;;;;;7.73;80.93;95586.11;104621;1261;101699;-85
2024/02/12 08:44:35;;;;;;;6.00;4.20;;;;;;;7.82;80.51;95585.60;104617;1262;99662;-83
2024/02/12 08:47:42;;;;;;;8.30;4.20;;;;;;;7.92;80.37;95580.69;104595;1256;98023;-83
2024/02/12 08:50:27;;;;;;;8.90;5.30;;;;;;;8.04;80.58;95581.41;104667;1262;98362;-83
2024/02/12 08:53:34;;;;;;;6.90;4.00;;;;;;;8.16;80.14;95584.48;104627;1261;102439;-82
2024/02/12 08:56:41;;;;;;;5.00;3.30;;;;;;;8.25;79.87;95589.22;104646;1262;101490;-77
2024/02/12 08:59:49;;;;;;;6.30;3.30;;;;;;;8.36;79.68;95595.95;104675;1267;99092;-79
2024/02/12 09:02:39;;;;;;;4.10;3.00;;;;;;;8.48;79.58;95600.04;104636;1262;98022;-77
2024/02/12 09:05:46;;;;;;;5.90;3.30;;;;;;;8.58;79.35;95602.73;104692;1273;98431;-77
2024/02/12 09:08:46;;;;;;;5.40;3.20;;;;;;;8.66;78.78;95605.91;104581;1257;102597;-77
2024/02/12 09:11:36;;;;;;;3.50;2.80;;;;;;;8.71;78.41;95609.21;104637;1260;100258;-80
2024/02/12 09:14:36;;;;;;;5.30;3.40;;;;;;;8.79;78.35;95611.51;104576;1261;99978;-79
2024/02/12 09:17:44;;;;;;;4.00;3.20;;;;;;;8.96;78.35;95613.13;104630;1279;99271;-80
2024/02/12 09:20:42;;;;;;;5.80;3.80;;;;;;;9.16;78.12;95614.25;104670;1261;98404;-81
2024/02/12 09:23:49;;;;;;;5.90;3.40;;;;;;;9.33;77.40;95616.02;104727;1262;103820;-79
2024/02/12 09:26:41;;;;;;;4.80;2.80;;;;;;;9.38;76.84;95621.00;104704;1256;100080;-78
2024/02/12 09:29:41;;;;;;;6.60;3.10;;;;;;;9.37;76.26;95623.52;104678;1262;99903;-83
2024/02/12 09:32:47;;;;;;;3.00;2.40;;;;;;;9.34;75.67;95627.23;104650;1262;97949;-79
2024/02/12 09:35:54;;;;;;;4.40;2.30;;;;;;;9.31;75.79;95629.22;104779;1267;98355;-76
2024/02/12 09:39:00;;;;;;;4.50;2.90;;;;;;;9.28;75.44;95630.30;104639;1271;102628;-77
2024/02/12 09:42:07;;;;;;;3.50;2.90;;;;;;;9.20;75.42;95636.11;104629;1260;100058;-79
2024/02/12 09:44:59;;;;;;;3.70;2.50;;;;;;;9.15;75.29;95642.93;104525;1262;100151;-77
2024/02/12 09:48:06;;;;;;;5.10;3.30;;;;;;;9.11;75.19;95645.11;104605;1261;98611;-82
2024/02/12 09:51:15;;;;;;;6.40;3.60;;;;;;;9.04;74.86;95649.23;104703;1270;98339;-79
2024/02/12 09:54:22;;;;;;;5.80;3.40;;;;;;;8.98;75.06;95652.08;104690;1262;103770;-77
2024/02/12 09:57:30;;;;;;;6.10;3.10;;;;;;;8.97;75.19;95653.50;104660;1272;100365;-78
2024/02/12 10:00:22;;;;;;;5.40;3.30;;;;;;;8.97;74.98;95653.17;104641;1261;99280;-77
2024/02/12 10:03:22;;;;;;;4.50;3.00;;;;;;;8.97;75.02;95650.61;104615;1270;97909;-79
2024/02/12 10:06:29;;;;;;;5.00;3.80;;;;;;;8.99;74.91;95651.61;104753;1279;98335;-79
2024/02/12 10:09:46;;;;;;;5.20;2.80;;;;;;;9.01;74.95;95645.63;104643;1262;102691;-76
2024/02/12 10:12:53;;;;;;;6.90;3.30;;;;;;;9.05;74.21;95649.45;104602;1262;101391;-82
2024/02/12 10:16:00;;;;;;;4.50;2.70;;;;;;;9.08;73.72;95649.38;104589;1262;100316;-75
2024/02/12 10:19:07;;;;;;;8.40;3.40;;;;;;;9.10;73.61;95647.36;104665;1269;98030;-76
2024/02/12 10:22:14;;;;;;;8.20;3.10;;;;;;;9.16;73.81;95648.05;104711;1260;98344;-77
2024/02/12 10:25:15;;;;;;;5.60;3.50;;;;;;;9.22;73.66;95649.77;104625;1261;103641;-80
2024/02/12 10:28:22;;;;;;;7.50;4.70;;;;;;;9.21;72.67;95647.91;104607;1262;101495;-77
2024/02/12 10:31:29;;;;;;;9.50;5.50;;;;;;;9.20;73.01;95649.67;104680;1262;98463;-82
2024/02/12 10:34:17;;;;;;;10.10;5.80;;;;;;;9.23;73.16;95648.06;104610;1275;97902;-80
2024/02/12 10:37:17;;;;;;;9.00;5.50;;;;;;;9.25;73.06;95647.83;104684;1262;98349;-77
2024/02/12 10:40:24;;;;;;;14.10;4.70;;;;;;;9.27;72.90;95646.08;104679;1262;103793;-77
2024/02/12 10:43:32;;;;;;;7.10;3.90;;;;;;;9.28;73.09;95646.80;104541;1267;101615;-78
2024/02/12 10:46:39;;;;;;;10.70;5.20;;;;;;;9.31;72.87;95649.52;104158;1270;100026;-82
2024/02/12 10:49:47;;;;;;;15.60;5.50;;;;;;;9.34;72.66;95652.97;104153;1284;98022;-80
2024/02/12 10:52:54;;;;;;;11.50;5.70;;;;;;;9.35;72.60;95652.89;104282;1268;99809;-78
2024/02/12 10:56:01;;;;;;;14.90;5.20;;;;;;;9.42;72.79;95653.95;104253;1268;103752;-78
2024/02/12 10:58:51;;;;;;;5.50;3.20;;;;;;;9.46;72.45;95654.98;104222;1268;100565;-77
2024/02/12 11:01:58;;;;;;;3.30;2.00;;;;;;;9.42;72.37;95652.45;104102;1277;99751;-84
2024/02/12 11:05:06;;;;;;;4.20;2.00;;;;;;;9.42;72.35;95653.46;104122;1271;98125;-83
2024/02/12 11:08:26;;;;;;;2.60;1.70;;;;;;;9.45;72.10;95652.11;104170;1265;99535;-77
2024/02/12 11:11:39;;;;;;;4.80;2.60;;;;;;;9.44;71.73;95649.40;104006;1265;103499;-78
2024/02/12 11:14:46;;;;;;;2.70;2.20;;;;;;;9.41;71.57;95648.79;104029;1265;101142;-78
2024/02/12 11:18:02;;;;;;;3.70;2.20;;;;;;;9.42;71.68;95646.73;104196;1277;100093;-79
2024/02/12 11:21:11;;;;;;;3.90;2.30;;;;;;;9.43;71.52;95647.98;104198;1268;97991;-76
2024/02/12 11:24:21;;;;;;;5.70;3.50;;;;;;;9.44;71.41;95654.77;104420;1262;98431;-76
2024/02/12 11:27:21;;;;;;;7.60;4.80;;;;;;;9.42;71.53;95656.33;104271;1262;102564;-79
2024/02/12 11:30:27;;;;;;;5.00;3.30;;;;;;;9.44;71.47;95660.13;104283;1268;100610;-79
2024/02/12 11:33:17;;;;;;;7.10;3.70;;;;;;;9.47;71.44;95658.60;104274;1268;98986;-83
2024/02/12 11:36:24;;;;;;;5.00;3.60;;;;;;;9.48;71.11;95659.44;104219;1268;98323;-84
2024/02/12 11:39:32;;;;;;;5.70;2.60;;;;;;;9.49;71.07;95661.66;104054;1277;99171;-84
2024/02/12 11:42:39;;;;;;;4.30;3.30;;;;;;;9.53;71.02;95662.30;103743;1274;103141;-86
2024/02/12 11:45:28;;;;;;;6.00;4.40;;;;;;;9.55;70.47;95663.25;103758;1287;100401;-83
2024/02/12 11:48:35;;;;;;;3.70;3.00;;;;;;;9.51;70.04;95662.98;104590;1271;99960;-75
2024/02/12 11:51:35;;;;;;;3.30;2.90;;;;;;;9.50;70.52;95664.11;107350;1270;95705;-75
2024/02/12 11:54:42;;;;;;;4.20;2.70;;;;;;;9.55;70.21;95666.80;103897;1285;98473;-77
2024/02/12 11:57:49;;;;;;;6.20;2.50;;;;;;;9.54;70.02;95668.69;103689;1274;102816;-78
2024/02/12 12:00:44;;;;;;;3.80;2.30;;;;;;;9.59;70.14;95667.61;103778;1293;100372;-78
2024/02/12 12:03:40;;;;;;;4.20;3.00;;;;;;;9.63;70.17;95665.33;103821;1272;99985;-79
2024/02/12 12:06:53;;;;;;;2.60;2.20;;;;;;;9.64;69.65;95665.55;104175;1268;98666;-84
2024/02/12 12:10:00;;;;;;;2.60;2.30;;;;;;;9.62;69.53;95666.66;104121;1268;99526;-84
2024/02/12 12:12:49;;;;;;;6.30;2.70;;;;;;;9.62;69.47;95669.08;104169;1270;103401;-84
2024/02/12 12:15:50;;;;;;;5.60;2.30;;;;;;;9.62;69.47;95670.27;104191;1281;100386;-83
2024/02/12 12:18:57;;;;;;;6.90;2.60;;;;;;;9.66;69.68;95672.04;104482;1260;100054;-84
2024/02/12 12:21:54;;;;;;;4.20;2.60;;;;;;;9.68;69.30;95669.89;104611;1270;97896;-85
2024/02/12 12:25:01;;;;;;;3.50;2.30;;;;;;;9.66;69.09;95667.20;104595;1260;99516;-84
2024/02/12 12:28:08;;;;;;;5.60;3.70;;;;;;;9.65;69.28;95666.65;104609;1271;103876;-77
2024/02/12 12:30:58;;;;;;;4.20;3.10;;;;;;;9.66;69.35;95670.42;104622;1271;101443;-84
2024/02/12 12:34:06;;;;;;;3.00;2.60;;;;;;;9.67;69.18;95672.20;104583;1262;99233;-83
2024/02/12 12:36:54;;;;;;;4.80;3.20;;;;;;;9.65;69.08;95672.36;104555;1262;98322;-84
2024/02/12 12:40:08;;;;;;;3.50;2.70;;;;;;;9.65;69.10;95672.30;104593;1264;98434;-84
2024/02/12 12:43:08;;;;;;;4.40;3.50;;;;;;;9.65;69.06;95675.98;104544;1270;102622;-85
2024/02/12 12:46:09;;;;;;;8.70;5.00;;;;;;;9.66;69.16;95675.96;104717;1261;100612;-78
2024/02/12 12:49:09;;;;;;;5.70;4.80;;;;;;;9.65;68.99;95676.41;104647;1270;99014;-78
2024/02/12 12:52:16;;;;;;;5.00;3.80;;;;;;;9.66;69.04;95675.92;104658;1262;99332;-79
2024/02/12 12:55:23;;;;;;;6.50;3.50;;;;;;;9.67;69.03;95679.90;104659;1261;98446;-81
2024/02/12 12:58:30;;;;;;;7.50;5.10;;;;;;;9.68;69.00;95684.40;104633;1270;103842;-78
2024/02/12 13:01:25;;;;;;;8.00;5.00;;;;;;;9.69;69.19;95686.45;104624;1263;101351;-79
2024/02/12 13:04:32;;;;;;;3.60;3.10;;;;;;;9.64;69.03;95683.39;104664;1262;99377;-79
2024/02/12 13:07:41;;;;;;;4.60;3.20;;;;;;;9.61;68.82;95683.28;104650;1260;98841;-79
2024/02/12 13:10:48;;;;;;;6.50;4.40;;;;;;;9.60;68.97;95690.33;104663;1265;99158;-79
2024/02/12 13:13:55;;;;;;;6.10;3.70;;;;;;;9.57;68.87;95692.32;104674;1262;102621;-79
2024/02/12 13:17:02;;;;;;;5.70;3.80;;;;;;;9.42;68.95;95691.34;104664;1260;101483;-83
2024/02/12 13:20:15;;;;;;;7.00;4.30;;;;;;;9.29;69.26;95695.86;104665;1273;99877;-84
2024/02/12 13:23:30;;;;;;;6.60;3.60;;;;;;;9.22;69.39;95700.70;104580;1278;97905;-83
2024/02/12 13:26:38;;;;;;;4.20;2.80;;;;;;;9.14;69.63;95704.99;104398;1266;99350;-78
2024/02/12 13:29:45;;;;;;;6.50;3.70;;;;;;;9.09;69.79;95710.98;104297;1276;103581;-78
2024/02/12 13:32:51;;;;;;;4.80;3.50;;;;;;;9.10;69.90;95715.69;104322;1263;99430;-79
2024/02/12 13:35:47;;;;;;;11.10;6.30;;;;;;;9.12;69.97;95716.21;104312;1274;99281;-78
2024/02/12 13:38:55;;;;;;;11.50;6.30;;;;;;;9.17;70.16;95721.58;104398;1265;98836;-78
2024/02/12 13:42:03;;;;;;;7.80;5.20;;;;;;;9.21;69.98;95721.27;104354;1263;98447;-75
2024/02/12 13:45:09;;;;;;;6.20;4.70;;;;;;;9.23;69.69;95723.98;104310;1261;102810;-76
2024/02/12 13:48:16;;;;;;;7.90;5.00;;;;;;;9.24;69.48;95724.80;104342;1268;101136;-83
2024/02/12 13:51:13;;;;;;;7.30;4.30;;;;;;;9.21;69.36;95724.54;104352;1274;98663;-85
2024/02/12 13:54:20;;;;;;;7.10;4.00;;;;;;;9.20;69.38;95725.96;104342;1266;98104;-83
2024/02/12 13:57:27;;;;;;;6.10;3.20;;;;;;;9.20;69.19;95728.39;104345;1276;98348;-85
2024/02/12 14:00:33;;;;;;;5.60;4.00;;;;;;;9.19;69.47;95728.91;104370;1267;103497;-80
2024/02/12 14:03:41;;;;;;;5.80;4.00;;;;;;;9.20;69.56;95730.86;104563;1273;100561;-79
2024/02/12 14:06:47;;;;;;;6.90;4.50;;;;;;;9.19;69.62;95730.99;104566;1260;99754;-79
2024/02/12 14:09:56;;;;;;;5.70;3.40;;;;;;;9.20;69.49;95738.30;104651;1278;97933;-79
2024/02/12 14:13:03;;;;;;;4.60;3.20;;;;;;;9.23;69.39;95739.70;104641;1268;98448;-79
2024/02/12 14:16:09;;;;;;;4.40;3.30;;;;;;;9.23;69.22;95742.88;104629;1271;103600;-80
2024/02/12 14:19:17;;;;;;;6.90;3.90;;;;;;;9.24;69.38;95745.48;104659;1261;101444;-81
2024/02/12 14:22:16;;;;;;;6.10;4.40;;;;;;;9.28;69.56;95747.88;104625;1262;99246;-80
2024/02/12 14:25:28;;;;;;;8.10;3.90;;;;;;;9.28;69.44;95751.05;104686;1260;97854;-77